Time;durP1;ratioP1;P1;durP2;ratioP2;P2;SDS_P1;SDS_P2;PMS_P1;PMS_P2;Temp;Humidity;BMP_temperature;BMP_pressure;BME280_temperature;BME280_humidity;BME280_pressure;Samples;Min_cycle;Max_cycle;Signal;HPM_P1;HPM_P2
2021/09/24 00:02:02;;;;;;;;;;;;;;;25.97;31.42;101012.53;5116560;28;866;-35
2021/09/24 00:04:28;;;;;;;;;;;;;;;25.96;31.24;101006.31;5116355;28;1416;-35
2021/09/24 00:06:53;;;;;;;;;;;;;;;25.97;31.55;101002.63;5116124;28;1088;-35
2021/09/24 00:09:18;;;;;;;;;;;;;;;25.92;31.32;101004.97;5115236;28;1056;-35
2021/09/24 00:11:44;;;;;;;;;;;;;;;25.89;31.49;101000.75;5096092;28;775;-35
2021/09/24 00:14:09;;;;;;;;;;;;;;;25.94;31.78;101002.97;5096036;28;1897;-35
2021/09/24 00:16:35;;;;;;;;;;;;;;;25.99;31.94;101003.28;5099422;28;1631;-35
2021/09/24 00:19:00;;;;;;;;;;;;;;;25.95;32.07;101001.94;5100038;28;927;-35
2021/09/24 00:21:25;;;;;;;;;;;;;;;25.95;31.96;100995.69;5099270;28;1060;-35
2021/09/24 00:23:50;;;;;;;;;;;;;;;25.95;31.81;100998.38;5116189;28;826;-35
2021/09/24 00:26:16;;;;;;;;;;;;;;;25.99;31.85;100999.75;5116068;28;811;-35
2021/09/24 00:28:41;;;;;;;;;;;;;;;25.99;32.02;100992.50;5116265;28;996;-35
2021/09/24 00:31:06;;;;;;;;;;;;;;;25.96;31.87;100994.69;5116147;28;1005;-35
2021/09/24 00:33:32;;;;;;;;;;;;;;;25.94;31.93;100996.72;5115400;28;1069;-35
2021/09/24 00:35:57;;;;;;;;;;;;;;;26.04;31.72;100990.13;5115762;28;1906;-35
2021/09/24 00:38:23;;;;;;;;;;;;;;;25.98;31.97;100990.81;5115206;28;1490;-35
2021/09/24 00:40:48;;;;;;;;;;;;;;;25.93;31.85;100987.78;5115483;28;902;-35
2021/09/24 00:43:13;;;;;;;;;;;;;;;25.91;31.94;100982.56;5115126;28;835;-35
2021/09/24 00:45:39;;;;;;;;;;;;;;;25.98;32.07;100984.56;5115710;28;868;-35
2021/09/24 00:48:04;;;;;;;;;;;;;;;25.92;32.04;100980.72;5115493;28;803;-35
2021/09/24 00:50:29;;;;;;;;;;;;;;;25.89;32.01;100971.09;5115945;28;767;-35
2021/09/24 00:52:54;;;;;;;;;;;;;;;25.96;32.02;100976.66;5115367;28;1056;-35
2021/09/24 00:55:20;;;;;;;;;;;;;;;25.94;31.84;100980.53;5113911;28;1922;-35
2021/09/24 00:57:46;;;;;;;;;;;;;;;25.99;31.61;100973.63;5116216;28;801;-35
2021/09/24 01:00:11;;;;;;;;;;;;;;;25.96;31.59;100978.53;5115798;28;1181;-35
2021/09/24 01:02:37;;;;;;;;;;;;;;;25.97;31.72;100964.88;5115355;28;802;-35
2021/09/24 01:05:02;;;;;;;;;;;;;;;25.95;31.86;100963.34;5115112;28;739;-35
2021/09/24 01:07:27;;;;;;;;;;;;;;;25.96;31.83;100948.88;5114383;28;1176;-35
2021/09/24 01:09:54;;;;;;;;;;;;;;;25.99;31.60;100952.06;5109466;28;1473;-35
2021/09/24 01:12:19;;;;;;;;;;;;;;;25.97;31.63;100953.25;5095293;28;777;-35
2021/09/24 01:14:45;;;;;;;;;;;;;;;25.95;31.69;100953.41;5095020;28;1885;-34
2021/09/24 01:17:10;;;;;;;;;;;;;;;25.97;31.18;100954.09;5094753;28;1073;-34
2021/09/24 01:19:35;;;;;;;;;;;;;;;25.93;31.01;100944.66;5095126;28;771;-34
2021/09/24 01:22:00;;;;;;;;;;;;;;;25.78;31.54;100941.81;5103754;28;1206;-34
2021/09/24 01:24:26;;;;;;;;;;;;;;;25.87;31.32;100934.56;5115135;28;763;-30
2021/09/24 01:26:52;;;;;;;;;;;;;;;25.98;30.98;100933.34;5114833;28;799;-29
2021/09/24 01:29:17;;;;;;;;;;;;;;;25.97;31.08;100937.94;5103859;28;1470;-29
2021/09/24 01:31:42;;;;;;;;;;;;;;;25.99;31.14;100930.50;5095240;28;1204;-31
2021/09/24 01:34:08;;;;;;;;;;;;;;;25.99;31.49;100926.97;5093789;28;2047;-29
2021/09/24 01:36:33;;;;;;;;;;;;;;;26.06;31.11;100924.44;5098995;28;1048;-30
2021/09/24 01:39:05;;;;;;;;;;;;;;;26.04;31.16;100927.31;5115128;28;811;-30
2021/09/24 01:41:30;;;;;;;;;;;;;;;26.00;31.42;100926.81;5114747;28;826;-29
2021/09/24 01:43:55;;;;;;;;;;;;;;;25.98;31.28;100925.28;5115302;28;807;-30
2021/09/24 01:46:21;;;;;;;;;;;;;;;25.96;31.17;100925.44;5114845;28;835;-30
2021/09/24 01:48:46;;;;;;;;;;;;;;;25.95;31.47;100926.47;5114803;28;735;-31
2021/09/24 01:51:11;;;;;;;;;;;;;;;25.97;30.81;100926.28;5114768;28;1022;-30
2021/09/24 01:53:36;;;;;;;;;;;;;;;25.97;31.19;100935.22;5115029;28;1960;-30
2021/09/24 01:56:02;;;;;;;;;;;;;;;26.00;30.95;100928.66;5115560;28;827;-28
2021/09/24 01:58:27;;;;;;;;;;;;;;;25.94;31.23;100929.34;5119482;28;775;-27
2021/09/24 02:00:52;;;;;;;;;;;;;;;25.97;31.01;100932.53;5119214;28;1236;-28
2021/09/24 02:03:18;;;;;;;;;;;;;;;25.96;31.31;100930.00;5118966;28;1140;-27
2021/09/24 02:05:43;;;;;;;;;;;;;;;26.01;31.49;100938.41;5118997;28;902;-27
2021/09/24 02:08:08;;;;;;;;;;;;;;;25.99;31.28;100937.75;5118332;28;1065;-28
2021/09/24 02:10:33;;;;;;;;;;;;;;;25.97;31.58;100943.31;5107180;28;1046;-27
2021/09/24 02:13:01;;;;;;;;;;;;;;;26.06;31.32;100937.91;5098981;28;775;-28
2021/09/24 02:15:26;;;;;;;;;;;;;;;25.98;31.26;100933.34;5098519;28;1902;-27
2021/09/24 02:17:52;;;;;;;;;;;;;;;25.94;30.04;100930.19;5098031;28;781;-27
2021/09/24 02:20:17;;;;;;;;;;;;;;;25.92;29.39;100938.41;5098024;28;830;-26
2021/09/24 02:22:42;;;;;;;;;;;;;;;25.95;28.95;100936.41;5112114;28;1061;-27
2021/09/24 02:25:07;;;;;;;;;;;;;;;25.92;28.87;100934.91;5118749;28;803;-27
2021/09/24 02:27:33;;;;;;;;;;;;;;;25.85;29.31;100933.88;5118874;28;839;-27
2021/09/24 02:29:58;;;;;;;;;;;;;;;25.78;29.27;100937.25;5117083;28;1029;-27
2021/09/24 02:32:23;;;;;;;;;;;;;;;25.83;28.83;100942.13;5118181;28;1068;-26
2021/09/24 02:34:49;;;;;;;;;;;;;;;25.77;28.84;100932.03;5118123;28;1910;-28
2021/09/24 02:37:14;;;;;;;;;;;;;;;25.70;29.30;100934.56;5097525;22;3543;-25
2021/09/24 02:39:39;;;;;;;;;;;;;;;25.68;29.28;100940.13;5047329;28;828;-25
2021/09/24 02:42:04;;;;;;;;;;;;;;;25.58;30.90;100943.97;5037879;28;803;-26
2021/09/24 02:44:30;;;;;;;;;;;;;;;25.67;31.28;100935.72;5038158;28;1098;-26
2021/09/24 02:46:55;;;;;;;;;;;;;;;25.71;31.11;100938.94;5037304;28;803;-26
2021/09/24 02:49:20;;;;;;;;;;;;;;;25.62;31.87;100937.25;5036826;28;836;-26
2021/09/24 02:51:46;;;;;;;;;;;;;;;25.58;32.12;100934.03;5049888;28;1091;-26
2021/09/24 02:54:11;;;;;;;;;;;;;;;25.89;31.35;100936.06;5077550;28;1953;-26
2021/09/24 02:56:36;;;;;;;;;;;;;;;26.01;31.13;100941.94;5077383;28;847;-26
2021/09/24 02:59:02;;;;;;;;;;;;;;;26.00;31.47;100940.28;5076907;28;846;-26
2021/09/24 03:01:27;;;;;;;;;;;;;;;25.69;28.32;100935.59;5076775;28;894;-28
2021/09/24 03:03:52;;;;;;;;;;;;;;;25.31;28.38;100931.50;5077375;28;783;-28
2021/09/24 03:06:17;;;;;;;;;;;;;;;25.12;29.08;100929.97;5076647;28;1021;-28
2021/09/24 03:08:43;;;;;;;;;;;;;;;25.05;28.72;100923.53;5049463;28;1628;-27
2021/09/24 03:11:08;;;;;;;;;;;;;;;25.06;28.07;100926.06;5045569;28;747;-27
2021/09/24 03:13:33;;;;;;;;;;;;;;;24.70;29.00;100919.03;5042566;28;1595;-28
2021/09/24 03:15:59;;;;;;;;;;;;;;;24.82;28.25;100919.56;5041592;28;1898;-27
2021/09/24 03:18:24;;;;;;;;;;;;;;;24.78;28.28;100917.38;5045560;28;776;-27
2021/09/24 03:20:51;;;;;;;;;;;;;;;24.76;28.08;100919.38;5055062;28;1587;-27
2021/09/24 03:23:17;;;;;;;;;;;;;;;24.74;28.41;100914.16;5075458;28;1057;-28
2021/09/24 03:25:43;;;;;;;;;;;;;;;24.67;28.04;100907.75;5076779;28;811;-27
2021/09/24 03:28:10;;;;;;;;;;;;;;;24.58;27.96;100904.19;5058831;28;1283;-28
2021/09/24 03:30:35;;;;;;;;;;;;;;;24.50;27.93;100905.00;5076238;28;759;-28
2021/09/24 03:33:00;;;;;;;;;;;;;;;24.45;27.75;100892.06;5058697;28;1093;-28
2021/09/24 03:35:25;;;;;;;;;;;;;;;24.42;27.69;100886.97;5076773;28;1973;-28
2021/09/24 03:37:51;;;;;;;;;;;;;;;24.43;27.88;100893.19;5064021;28;1248;-28
2021/09/24 03:40:16;;;;;;;;;;;;;;;24.34;27.86;100895.84;5056079;28;777;-28
2021/09/24 03:42:41;;;;;;;;;;;;;;;24.12;28.66;100899.06;5056530;28;792;-27
2021/09/24 03:45:08;;;;;;;;;;;;;;;24.13;28.61;100890.84;5056306;28;789;-28
2021/09/24 03:47:33;;;;;;;;;;;;;;;23.80;28.44;100904.91;5051837;28;1636;-28
2021/09/24 03:49:59;;;;;;;;;;;;;;;23.54;28.09;100907.56;5045546;28;838;-28
2021/09/24 03:52:24;;;;;;;;;;;;;;;23.26;28.27;100905.75;5053839;28;1374;-27
2021/09/24 03:54:49;;;;;;;;;;;;;;;23.51;28.19;100902.47;5056179;28;1918;-26
2021/09/24 03:57:15;;;;;;;;;;;;;;;23.64;27.82;100902.94;5056397;28;1352;-26
2021/09/24 03:59:40;;;;;;;;;;;;;;;23.62;27.49;100893.34;5056251;28;854;-26
2021/09/24 04:02:05;;;;;;;;;;;;;;;23.47;27.33;100894.75;5055543;28;749;-25
2021/09/24 04:04:30;;;;;;;;;;;;;;;23.53;29.02;100887.91;5055772;28;1710;-25
2021/09/24 04:06:56;;;;;;;;;;;;;;;23.52;29.58;100896.13;5063234;28;1043;-25
2021/09/24 04:09:21;;;;;;;;;;;;;;;23.78;28.63;100893.47;5075430;28;799;-25
2021/09/24 04:11:46;;;;;;;;;;;;;;;23.91;29.21;100893.06;5075565;28;784;-26
2021/09/24 04:14:12;;;;;;;;;;;;;;;24.22;28.74;100899.84;5066420;28;1897;-26
2021/09/24 04:16:37;;;;;;;;;;;;;;;24.41;28.63;100897.88;5055382;28;1338;-26
2021/09/24 04:19:02;;;;;;;;;;;;;;;24.57;28.80;100892.56;5054588;28;975;-26
2021/09/24 04:21:27;;;;;;;;;;;;;;;24.63;28.96;100896.47;5057565;28;1052;-26
2021/09/24 04:23:53;;;;;;;;;;;;;;;24.78;28.91;100895.84;5072916;28;1341;-26
2021/09/24 04:26:18;;;;;;;;;;;;;;;24.79;29.21;100900.25;5055275;28;868;-26
2021/09/24 04:28:43;;;;;;;;;;;;;;;24.89;29.25;100895.53;5054760;28;1457;-26
2021/09/24 04:31:09;;;;;;;;;;;;;;;24.93;29.38;100890.72;5054112;28;1585;-26
2021/09/24 04:33:34;;;;;;;;;;;;;;;24.96;29.52;100889.56;5055299;28;799;-26
2021/09/24 04:35:59;;;;;;;;;;;;;;;24.97;29.41;100889.38;5055579;28;1898;-26
2021/09/24 04:38:24;;;;;;;;;;;;;;;24.97;29.45;100883.16;5056853;28;1024;-26
2021/09/24 04:40:50;;;;;;;;;;;;;;;25.00;29.69;100880.13;5055522;28;831;-25
2021/09/24 04:43:15;;;;;;;;;;;;;;;25.20;29.50;100883.34;5053985;28;1389;-26
2021/09/24 04:45:40;;;;;;;;;;;;;;;25.32;29.41;100878.50;5054901;28;823;-26
2021/09/24 04:48:05;;;;;;;;;;;;;;;25.34;29.48;100878.31;5055253;28;771;-26
2021/09/24 04:50:31;;;;;;;;;;;;;;;25.46;29.19;100876.13;5055356;28;760;-26
2021/09/24 04:52:56;;;;;;;;;;;;;;;25.46;29.62;100870.75;5068538;28;1114;-26
2021/09/24 04:55:21;;;;;;;;;;;;;;;25.42;29.80;100864.84;5074753;28;1922;-26
2021/09/24 04:57:47;;;;;;;;;;;;;;;25.46;29.87;100860.81;5059704;28;1495;-26
2021/09/24 05:00:12;;;;;;;;;;;;;;;25.49;29.86;100860.47;5054447;28;1427;-26
2021/09/24 05:02:38;;;;;;;;;;;;;;;25.53;29.82;100860.97;5054260;28;1467;-26
2021/09/24 05:05:03;;;;;;;;;;;;;;;25.63;30.22;100869.75;5053452;28;1456;-26
2021/09/24 05:07:29;;;;;;;;;;;;;;;25.63;30.66;100863.50;5066603;28;1395;-26
2021/09/24 05:09:54;;;;;;;;;;;;;;;25.62;30.94;100867.19;5072727;28;1492;-26
2021/09/24 05:12:19;;;;;;;;;;;;;;;25.61;31.25;100857.44;5064763;28;744;-26
2021/09/24 05:14:44;;;;;;;;;;;;;;;25.71;31.20;100851.91;5074129;28;1902;-25
2021/09/24 05:17:10;;;;;;;;;;;;;;;25.82;30.93;100848.84;5074754;28;817;-25
2021/09/24 05:19:35;;;;;;;;;;;;;;;25.83;31.51;100845.13;5074585;28;839;-26
2021/09/24 05:22:00;;;;;;;;;;;;;;;25.88;31.17;100841.91;5067535;28;1104;-26
2021/09/24 05:24:26;;;;;;;;;;;;;;;25.93;31.64;100847.63;5053756;28;1055;-25
2021/09/24 05:26:51;;;;;;;;;;;;;;;25.92;31.79;100840.56;5054619;28;799;-26
2021/09/24 05:29:16;;;;;;;;;;;;;;;25.88;32.22;100829.28;5053717;28;1566;-26
2021/09/24 05:31:41;;;;;;;;;;;;;;;26.02;31.65;100821.50;5051218;28;1634;-26
2021/09/24 05:34:07;;;;;;;;;;;;;;;26.08;31.40;100833.44;5053717;28;1963;-26
2021/09/24 05:36:32;;;;;;;;;;;;;;;25.98;30.33;100830.94;5057280;28;1199;-26
2021/09/24 05:38:57;;;;;;;;;;;;;;;26.04;30.90;100827.56;5075294;28;752;-25
2021/09/24 05:41:23;;;;;;;;;;;;;;;25.67;30.27;100833.34;5075253;28;831;-27
2021/09/24 05:43:50;;;;;;;;;;;;;;;25.25;29.72;100831.69;5062765;28;1711;-26
2021/09/24 05:46:15;;;;;;;;;;;;;;;25.10;29.47;100826.13;5055163;28;932;-26
2021/09/24 05:48:41;;;;;;;;;;;;;;;25.10;28.77;100827.00;5054434;28;794;-26
2021/09/24 05:51:06;;;;;;;;;;;;;;;24.72;29.44;100831.94;5054025;28;1083;-27
2021/09/24 05:53:31;;;;;;;;;;;;;;;24.83;28.61;100837.88;5067945;28;1459;-26
2021/09/24 05:55:56;;;;;;;;;;;;;;;24.86;28.50;100847.44;5055209;28;1902;-26
2021/09/24 05:58:22;;;;;;;;;;;;;;;24.90;28.36;100834.50;5054530;28;764;-26
2021/09/24 06:00:47;;;;;;;;;;;;;;;24.86;27.76;100846.63;5054462;28;823;-26
2021/09/24 06:03:13;;;;;;;;;;;;;;;24.85;27.49;100845.78;5055229;28;823;-26
2021/09/24 06:05:38;;;;;;;;;;;;;;;24.40;27.95;100855.88;5054292;28;1362;-27
2021/09/24 06:08:03;;;;;;;;;;;;;;;24.39;27.49;100854.22;5056245;28;1137;-26
2021/09/24 06:10:29;;;;;;;;;;;;;;;24.33;27.39;100850.31;5054664;28;844;-26
2021/09/24 06:12:54;;;;;;;;;;;;;;;24.02;27.48;100861.56;5054748;28;782;-26
2021/09/24 06:15:21;;;;;;;;;;;;;;;24.03;27.36;100860.53;5054449;28;1895;-26
2021/09/24 06:17:46;;;;;;;;;;;;;;;24.23;27.99;100873.78;5054804;28;844;-25
2021/09/24 06:20:12;;;;;;;;;;;;;;;24.67;28.07;100862.03;5054501;28;972;-26
2021/09/24 06:22:37;;;;;;;;;;;;;;;25.07;27.97;100867.69;5065799;28;1702;-26
2021/09/24 06:25:03;;;;;;;;;;;;;;;25.23;27.48;100861.47;5074644;28;787;-26
2021/09/24 06:27:28;;;;;;;;;;;;;;;25.17;28.26;100852.22;5075369;28;755;-26
2021/09/24 06:29:56;;;;;;;;;;;;;;;25.19;27.84;100857.47;5074810;28;1057;-26
2021/09/24 06:32:22;;;;;;;;;;;;;;;25.25;27.64;100862.16;5074554;28;1048;-26
2021/09/24 06:34:47;;;;;;;;;;;;;;;25.24;27.34;100855.06;5074601;28;1985;-26
2021/09/24 06:37:12;;;;;;;;;;;;;;;25.40;27.30;100862.34;5073913;28;1036;-26
2021/09/24 06:39:38;;;;;;;;;;;;;;;25.32;27.50;100862.34;5074320;28;807;-26
2021/09/24 06:42:03;;;;;;;;;;;;;;;25.42;27.15;100852.22;5075813;28;799;-26
2021/09/24 06:44:28;;;;;;;;;;;;;;;25.49;27.26;100860.47;5059954;28;787;-26
2021/09/24 06:46:54;;;;;;;;;;;;;;;25.53;27.10;100867.19;5078072;28;808;-26
2021/09/24 06:49:22;;;;;;;;;;;;;;;25.63;27.04;100864.38;5078252;28;900;-26
2021/09/24 06:51:47;;;;;;;;;;;;;;;25.67;26.51;100854.09;5071835;28;1455;-26
2021/09/24 06:54:13;;;;;;;;;;;;;;;25.65;26.49;100850.72;5057728;28;1969;-26
2021/09/24 06:56:38;;;;;;;;;;;;;;;25.60;26.67;100859.28;5057980;28;1734;-26
2021/09/24 06:59:03;;;;;;;;;;;;;;;25.59;26.89;100859.47;5057642;28;811;-26
2021/09/24 07:01:29;;;;;;;;;;;;;;;25.65;26.78;100866.88;5058255;28;751;-26
2021/09/24 07:03:54;;;;;;;;;;;;;;;25.65;26.92;100862.34;5039721;28;1246;-26
2021/09/24 07:06:19;;;;;;;;;;;;;;;25.61;27.18;100866.34;5060021;28;1079;-26
2021/09/24 07:08:45;;;;;;;;;;;;;;;25.61;27.20;100869.03;5077816;28;1054;-25
2021/09/24 07:11:10;;;;;;;;;;;;;;;25.79;27.05;100873.44;5077969;28;831;-26
2021/09/24 07:13:35;;;;;;;;;;;;;;;25.84;27.45;100872.94;5077402;28;791;-26
2021/09/24 07:16:02;;;;;;;;;;;;;;;25.84;28.11;100872.94;5077433;28;1981;-26
2021/09/24 07:18:27;;;;;;;;;;;;;;;25.90;29.03;100873.09;5077689;28;795;-26
2021/09/24 07:20:53;;;;;;;;;;;;;;;26.04;29.04;100863.44;5077079;28;823;-26
2021/09/24 07:23:18;;;;;;;;;;;;;;;25.99;29.31;100856.88;5076978;28;1061;-25
2021/09/24 07:25:44;;;;;;;;;;;;;;;25.98;29.56;100856.03;5077461;28;752;-25
2021/09/24 07:28:09;;;;;;;;;;;;;;;26.11;29.53;100863.56;5061517;28;1419;-26
2021/09/24 07:30:34;;;;;;;;;;;;;;;26.12;30.00;100859.03;5056919;28;780;-25
2021/09/24 07:36:02;;;;;;;;;;;;;;;26.19;31.41;100832.22;5057375;28;1902;-26
2021/09/24 07:38:28;;;;;;;;;;;;;;;26.25;30.99;100832.38;5056531;28;1087;-26
2021/09/24 07:40:53;;;;;;;;;;;;;;;26.31;30.73;100838.91;5056840;28;1476;-26
2021/09/24 07:43:19;;;;;;;;;;;;;;;26.39;31.16;100841.59;5056025;28;1435;-26
2021/09/24 07:45:44;;;;;;;;;;;;;;;26.43;31.43;100839.38;5057028;28;744;-26
2021/09/24 07:48:09;;;;;;;;;;;;;;;26.51;31.19;100843.88;5057178;28;1697;-26
2021/09/24 07:50:35;;;;;;;;;;;;;;;26.52;30.98;100843.75;5056576;28;794;-26
2021/09/24 07:53:00;;;;;;;;;;;;;;;26.35;31.53;100848.38;5061123;28;1337;-26
2021/09/24 07:55:25;;;;;;;;;;;;;;;26.60;31.16;100853.63;5056769;28;1926;-26
2021/09/24 07:57:55;;;;;;;;;;;;;;;26.58;31.44;100849.41;5056056;28;770;-26
2021/09/24 08:00:21;;;;;;;;;;;;;;;26.57;32.17;100847.75;5056910;28;783;-26
2021/09/24 08:02:46;;;;;;;;;;;;;;;26.60;32.35;100852.78;5056638;28;758;-26
2021/09/24 08:05:11;;;;;;;;;;;;;;;26.60;32.30;100842.84;5056097;28;1487;-26
2021/09/24 08:07:37;;;;;;;;;;;;;;;26.56;32.97;100840.69;5069548;28;1034;-26
2021/09/24 08:10:05;;;;;;;;;;;;;;;26.74;33.05;100829.63;5076367;28;783;-26
2021/09/24 08:12:30;;;;;;;;;;;;;;;26.74;31.52;100832.31;5058491;28;1248;-26
2021/09/24 08:14:56;;;;;;;;;;;;;;;26.78;32.37;100829.06;5062980;28;1910;-25
2021/09/24 08:17:21;;;;;;;;;;;;;;;27.00;32.19;100823.88;5056790;28;1188;-26
2021/09/24 08:19:46;;;;;;;;;;;;;;;27.00;32.14;100820.31;5056174;28;735;-26
2021/09/24 08:22:12;;;;;;;;;;;;;;;27.01;32.24;100808.47;5066152;28;1034;-26
2021/09/24 08:24:37;;;;;;;;;;;;;;;26.95;32.85;100809.22;5070757;28;1749;-26
2021/09/24 08:27:02;;;;;;;;;;;;;;;27.17;32.21;100802.16;5055818;28;723;-26
2021/09/24 08:29:28;;;;;;;;;;;;;;;27.23;32.46;100800.56;5056357;28;807;-26
2021/09/24 08:31:53;;;;;;;;;;;;;;;27.29;31.96;100805.25;5055943;28;1097;-26
2021/09/24 08:34:18;;;;;;;;;;;;;;;27.39;31.77;100807.72;5055434;28;1964;-26
2021/09/24 08:36:43;;;;;;;;;;;;;;;27.49;31.62;100804.75;5059556;28;1543;-26
2021/09/24 08:39:11;;;;;;;;;;;;;;;27.47;31.61;100796.81;5076157;28;775;-26
2021/09/24 08:41:36;;;;;;;;;;;;;;;27.56;32.08;100797.56;5075759;28;811;-26
2021/09/24 08:44:02;;;;;;;;;;;;;;;27.55;31.72;100786.94;5064534;28;1444;-26
2021/09/24 08:46:27;;;;;;;;;;;;;;;27.54;31.10;100779.88;5055757;28;766;-26
2021/09/24 08:48:53;;;;;;;;;;;;;;;27.65;31.56;100781.25;5055728;28;768;-26
2021/09/24 08:51:18;;;;;;;;;;;;;;;27.68;31.43;100770.06;5056968;28;1168;-26
2021/09/24 08:53:43;;;;;;;;;;;;;;;27.73;31.35;100765.81;5071672;28;1721;-26
2021/09/24 08:56:10;;;;;;;;;;;;;;;27.49;31.65;100711.00;5191398;22;3414;-26
2021/09/24 08:58:35;;;;;;;;;;;;;;;27.86;31.77;100767.03;5074476;28;1689;-25
2021/09/24 09:01:01;;;;;;;;;;;;;;;27.79;31.99;100753.44;5075709;28;937;-26
2021/09/24 09:03:42;;;;;;;;;;;;;;;27.84;32.20;100769.09;5075845;28;774;-25
2021/09/24 09:06:08;;;;;;;;;;;;;;;27.74;31.01;100756.69;5075760;28;1475;-26
2021/09/24 09:08:33;;;;;;;;;;;;;;;27.72;30.36;100752.50;5095962;28;1016;-25
2021/09/24 09:11:01;;;;;;;;;;;;;;;27.50;30.39;100753.22;5229165;22;3664;-25
2021/09/24 09:13:28;;;;;;;;;;;;;;;27.60;32.09;100744.84;5075153;28;724;-26
2021/09/24 09:15:54;;;;;;;;;;;;;;;27.70;32.42;100727.53;5060887;28;1909;-26
2021/09/24 09:18:19;;;;;;;;;;;;;;;27.82;32.64;100730.59;5055262;28;735;-26
2021/09/24 09:20:45;;;;;;;;;;;;;;;27.96;32.00;100735.13;5055493;28;839;-25
2021/09/24 09:23:11;;;;;;;;;;;;;;;27.91;30.90;100728.63;5091368;28;1046;-26
2021/09/24 09:25:40;;;;;;;;;;;;;;;28.00;31.63;100727.47;5083166;28;1404;-26
2021/09/24 09:28:07;;;;;;;;;;;;;;;28.02;30.61;100725.44;5074718;28;1477;-26
2021/09/24 09:30:33;;;;;;;;;;;;;;;27.85;30.33;100719.41;5074791;28;879;-25
2021/09/24 09:32:58;;;;;;;;;;;;;;;27.89;31.29;100715.31;5074430;28;1219;-25
2021/09/24 09:35:23;;;;;;;;;;;;;;;27.97;31.72;100711.63;5073314;28;1947;-25
2021/09/24 09:37:49;;;;;;;;;;;;;;;27.97;31.33;100695.41;5089557;28;992;-25
2021/09/24 09:40:16;;;;;;;;;;;;;;;28.04;31.08;100684.69;5095394;28;735;-25
2021/09/24 09:42:42;;;;;;;;;;;;;;;28.15;31.02;100680.63;5095395;28;803;-25
2021/09/24 09:45:09;;;;;;;;;;;;;;;28.17;31.30;100679.41;5095774;28;770;-25
2021/09/24 09:47:35;;;;;;;;;;;;;;;28.19;30.74;100666.56;5077960;28;1411;-25
2021/09/24 09:50:04;;;;;;;;;;;;;;;28.26;30.46;100669.28;5074794;28;937;-25
2021/09/24 09:52:32;;;;;;;;;;;;;;;28.26;30.75;100663.88;5086625;28;1035;-25
2021/09/24 09:55:01;;;;;;;;;;;;;;;28.36;31.10;100674.44;5076709;28;1890;-25
2021/09/24 09:57:27;;;;;;;;;;;;;;;28.35;30.81;100657.38;5083651;28;1355;-25
2021/09/24 09:59:53;;;;;;;;;;;;;;;28.48;30.28;100655.78;5074666;28;775;-25
2021/09/24 10:02:36;;;;;;;;;;;;;;;28.38;30.59;100648.00;5074542;28;796;-25
2021/09/24 10:05:01;;;;;;;;;;;;;;;28.34;31.22;100646.75;5074633;28;706;-25
2021/09/24 10:07:28;;;;;;;;;;;;;;;28.53;30.42;100644.41;5080073;28;1408;-25
2021/09/24 10:10:08;;;;;;;;;;;;;;;28.54;30.71;100646.06;5074160;28;890;-25
2021/09/24 10:12:33;;;;;;;;;;;;;;;28.66;30.22;100652.63;5089148;28;1990;-25
2021/09/24 10:14:59;;;;;;;;;;;;;;;28.76;30.21;100638.72;5074474;28;1906;-25
2021/09/24 10:17:24;;;;;;;;;;;;;;;28.81;30.10;100640.88;5075484;28;1389;-25
2021/09/24 10:19:50;;;;;;;;;;;;;;;28.85;29.97;100639.44;5076483;28;1495;-25
2021/09/24 10:22:15;;;;;;;;;;;;;;;28.88;29.51;100625.50;5088765;28;1075;-25
2021/09/24 10:24:41;;;;;;;;;;;;;;;27.66;23.13;100627.03;5098339;28;742;-26
2021/09/24 10:27:06;;;;;;;;;;;;;;;27.20;23.89;100618.16;5098196;28;1247;-26
2021/09/24 10:29:32;;;;;;;;;;;;;;;27.22;23.51;100615.28;5083870;28;1419;-26
2021/09/24 10:32:21;;;;;;;;;;;;;;;26.70;21.36;100599.78;5059744;28;866;-26
2021/09/24 10:34:50;;;;;;;;;;;;;;;27.85;22.08;100600.47;5072383;28;1960;-25
2021/09/24 10:37:17;;;;;;;;;;;;;;;27.48;21.82;100603.97;5088594;28;1246;-25
2021/09/24 10:39:42;;;;;;;;;;;;;;;27.38;22.46;100601.56;5068830;28;1318;-25
2021/09/24 10:42:18;;;;;;;;;;;;;;;27.92;22.51;100595.97;5077593;28;1480;-25
2021/09/24 10:44:56;;;;;;;;;;;;;;;28.13;21.30;100591.56;5077993;28;790;-25
2021/09/24 10:47:40;;;;;;;;;;;;;;;28.10;21.29;100584.69;5077311;28;866;-25
2021/09/24 10:50:25;;;;;;;;;;;;;;;28.32;21.81;100586.53;5076135;28;1424;-25
2021/09/24 10:53:16;;;;;;;;;;;;;;;28.22;21.20;100578.75;5092421;28;1397;-25
2021/09/24 10:55:41;;;;;;;;;;;;;;;28.32;21.37;100565.75;5097410;28;1893;-25
2021/09/24 10:58:07;;;;;;;;;;;;;;;28.33;21.21;100563.88;5098008;28;810;-25
2021/09/24 11:00:32;;;;;;;;;;;;;;;28.20;21.07;100568.16;5089309;28;1843;-25
2021/09/24 11:03:08;;;;;;;;;;;;;;;27.91;20.43;100561.03;5059027;28;1291;-25
2021/09/24 11:05:52;;;;;;;;;;;;;;;27.80;19.79;100549.69;5077659;28;758;-25
2021/09/24 11:08:33;;;;;;;;;;;;;;;28.27;20.18;100543.84;5096263;28;1071;-25
2021/09/24 11:11:07;;;;;;;;;;;;;;;28.27;20.12;100546.56;5092991;28;1558;-25
2021/09/24 11:13:32;;;;;;;;;;;;;;;28.37;20.86;100538.13;5097573;28;845;-25
2021/09/24 11:16:04;;;;;;;;;;;;;;;28.39;20.45;100535.22;5097959;28;1918;-25
2021/09/24 11:18:48;;;;;;;;;;;;;;;28.17;20.25;100533.38;5097100;28;831;-25
2021/09/24 11:21:17;;;;;;;;;;;;;;;28.11;20.00;100551.22;5094177;28;1412;-25
2021/09/24 11:23:43;;;;;;;;;;;;;;;27.81;19.38;100537.84;5097257;28;873;-25
2021/09/24 11:26:12;;;;;;;;;;;;;;;27.76;19.60;100529.47;5091010;28;1729;-25
2021/09/24 11:28:38;;;;;;;;;;;;;;;27.69;19.50;100512.38;5076593;28;750;-25
2021/09/24 11:31:03;;;;;;;;;;;;;;;26.52;19.85;100527.28;5076891;28;848;-26
2021/09/24 11:33:37;;;;;;;;;;;;;;;26.23;20.39;100512.69;5074695;28;1701;-26
2021/09/24 11:36:02;;;;;;;;;;;;;;;26.93;21.08;100501.69;5077226;28;1961;-26
2021/09/24 11:38:29;;;;;;;;;;;;;;;27.42;20.77;100498.53;5096740;28;1109;-26
2021/09/24 11:40:55;;;;;;;;;;;;;;;26.57;20.55;100486.25;5078423;28;850;-26
2021/09/24 11:43:24;;;;;;;;;;;;;;;26.03;20.43;100487.09;5084005;28;1384;-26
2021/09/24 11:45:49;;;;;;;;;;;;;;;25.67;21.13;100487.72;5076857;28;848;-26
2021/09/24 11:48:15;;;;;;;;;;;;;;;25.96;20.69;100471.84;5076278;28;815;-26
2021/09/24 11:50:40;;;;;;;;;;;;;;;26.71;20.12;100487.28;5058512;28;1231;-26
2021/09/24 11:53:09;;;;;;;;;;;;;;;27.03;20.12;100477.13;5087797;28;1266;-26
2021/09/24 11:55:38;;;;;;;;;;;;;;;27.79;19.31;100472.34;5076384;28;1953;-26
2021/09/24 11:58:07;;;;;;;;;;;;;;;26.25;20.16;100475.59;5076400;28;819;-26
2021/09/24 12:00:36;;;;;;;;;;;;;;;25.79;19.90;100455.81;5075883;28;799;-26
2021/09/24 12:03:08;;;;;;;;;;;;;;;25.76;20.55;100475.84;5076517;28;1079;-26
2021/09/24 12:05:33;;;;;;;;;;;;;;;25.60;20.11;100473.25;5074906;28;1541;-27
2021/09/24 12:07:58;;;;;;;;;;;;;;;25.58;20.65;100459.97;5063893;28;1357;-26
2021/09/24 12:10:30;;;;;;;;;;;;;;;25.73;20.54;100456.50;5069595;28;1703;-26
2021/09/24 12:13:11;;;;;;;;;;;;;;;26.00;20.45;100443.47;5095497;28;1225;-26
2021/09/24 12:15:50;;;;;;;;;;;;;;;26.37;20.24;100441.81;5057551;28;1898;-26
2021/09/24 12:18:15;;;;;;;;;;;;;;;25.86;20.30;100432.50;5056962;28;1441;-26
2021/09/24 12:20:41;;;;;;;;;;;;;;;25.92;19.93;100431.75;5056608;28;1718;-26
2021/09/24 12:23:06;;;;;;;;;;;;;;;25.88;20.23;100435.00;5055547;28;1175;-26
2021/09/24 12:25:31;;;;;;;;;;;;;;;25.73;20.69;100434.97;5047736;28;1667;-27
2021/09/24 12:28:10;;;;;;;;;;;;;;;26.25;20.35;100435.16;5076049;28;1728;-26
2021/09/24 12:30:44;;;;;;;;;;;;;;;26.20;20.35;100421.38;5074994;28;1698;-26
2021/09/24 12:33:12;;;;;;;;;;;;;;;26.08;20.45;100437.16;5060940;28;1404;-26
2021/09/24 12:35:38;;;;;;;;;;;;;;;26.40;19.58;100410.91;5074658;28;1902;-26
2021/09/24 12:38:03;;;;;;;;;;;;;;;25.64;20.83;100408.09;5092482;28;1055;-26
2021/09/24 12:40:29;;;;;;;;;;;;;;;26.89;20.71;100392.44;5095704;28;851;-25
2021/09/24 12:42:57;;;;;;;;;;;;;;;27.86;19.98;100375.09;5096123;28;775;-25
2021/09/24 12:45:24;;;;;;;;;;;;;;;28.24;20.20;100366.56;5096229;28;783;-25
2021/09/24 12:47:49;;;;;;;;;;;;;;;28.28;20.98;100368.91;5096488;28;1157;-25
2021/09/24 12:50:14;;;;;;;;;;;;;;;28.40;21.54;100363.75;5095882;28;734;-25